createdAt,value
2023-05-24T00:00:44.343Z,39.76
2023-05-24T00:03:12.730Z,39.73
2023-05-24T00:05:40.447Z,39.87
2023-05-24T00:08:06.950Z,39.62
2023-05-24T00:10:33.709Z,39.52
2023-05-24T00:13:00.232Z,39.64
2023-05-24T00:15:26.939Z,39.46
2023-05-24T00:17:53.517Z,39.72
2023-05-24T00:20:20.454Z,40.29
2023-05-24T00:22:47.025Z,39.73
2023-05-24T00:25:13.557Z,39.82
2023-05-24T00:27:40.457Z,39.92
2023-05-24T00:30:07.662Z,39.88
2023-05-24T00:32:36.276Z,39.68
2023-05-24T00:35:04.507Z,39.83
2023-05-24T00:37:31.868Z,40.22
2023-05-24T00:39:58.268Z,40.83
2023-05-24T00:42:24.941Z,40.65
2023-05-24T00:44:51.838Z,40.35
2023-05-24T00:47:18.807Z,40.18
2023-05-24T00:49:46.150Z,40.27
2023-05-24T00:52:12.709Z,40.17
2023-05-24T00:54:40.163Z,40.40
2023-05-24T00:57:06.862Z,40.13
2023-05-24T00:59:33.380Z,40.67
2023-05-24T01:02:00.267Z,40.81
2023-05-24T01:04:28.151Z,40.95
2023-05-24T01:07:26.129Z,40.93
2023-05-24T01:10:14.460Z,41.02
2023-05-24T01:12:46.703Z,41.46
2023-05-24T01:15:28.005Z,40.75
2023-05-24T01:18:11.369Z,40.44
2023-05-24T01:20:38.834Z,40.61
2023-05-24T01:23:05.856Z,40.48
2023-05-24T01:25:46.917Z,40.73
2023-05-24T01:28:13.358Z,41.00
2023-05-24T01:30:40.114Z,41.11
2023-05-24T01:33:06.993Z,40.84
2023-05-24T01:35:39.839Z,41.03
2023-05-24T01:38:06.652Z,41.16
2023-05-24T01:40:34.832Z,40.75
2023-05-24T01:43:03.486Z,40.78
2023-05-24T01:45:39.174Z,40.69
2023-05-24T01:48:18.189Z,40.54
2023-05-24T01:51:06.555Z,40.45
2023-05-24T01:53:34.319Z,40.49
2023-05-24T01:56:03.398Z,40.96
2023-05-24T01:58:30.686Z,41.18
2023-05-24T02:00:57.414Z,41.09
2023-05-24T02:03:25.693Z,41.09
2023-05-24T02:05:52.658Z,41.33
2023-05-24T02:08:19.545Z,41.15
2023-05-24T02:10:46.220Z,41.43
2023-05-24T02:13:13.441Z,41.50
2023-05-24T02:15:41.560Z,41.29
2023-05-24T02:18:12.562Z,41.44
2023-05-24T02:20:40.058Z,41.68
2023-05-24T02:23:07.281Z,41.71
2023-05-24T02:25:34.489Z,41.54
2023-05-24T02:28:01.981Z,41.85
2023-05-24T02:30:28.965Z,41.84
2023-05-24T02:32:55.690Z,41.66
2023-05-24T02:35:22.583Z,41.80
2023-05-24T02:37:49.115Z,42.07
2023-05-24T02:40:15.671Z,42.13
2023-05-24T02:42:42.432Z,42.14
2023-05-24T02:45:09.820Z,42.04
2023-05-24T02:47:36.853Z,42.23
2023-05-24T02:50:04.413Z,42.31
2023-05-24T02:52:32.491Z,41.99
2023-05-24T02:54:59.476Z,42.30
2023-05-24T02:57:28.295Z,42.71
2023-05-24T02:59:55.650Z,42.71
2023-05-24T03:02:22.546Z,42.53
2023-05-24T03:04:49.837Z,42.69
2023-05-24T03:07:16.722Z,43.01
2023-05-24T03:09:43.507Z,43.19
2023-05-24T03:12:10.305Z,42.60
2023-05-24T03:14:37.893Z,41.82
2023-05-24T03:17:06.131Z,41.17
2023-05-24T03:19:33.616Z,40.30
2023-05-24T03:22:00.281Z,40.17
2023-05-24T03:24:26.866Z,40.24
2023-05-24T03:26:53.732Z,39.53
2023-05-24T03:29:21.133Z,39.57
2023-05-24T03:31:48.254Z,39.65
2023-05-24T03:34:15.093Z,39.80
2023-05-24T03:36:41.663Z,39.56
2023-05-24T03:39:09.463Z,39.09
2023-05-24T03:41:49.642Z,39.34
2023-05-24T03:44:16.372Z,39.33
2023-05-24T03:46:43.081Z,39.26
2023-05-24T03:49:12.668Z,39.36
2023-05-24T03:51:40.234Z,38.89
2023-05-24T03:54:07.120Z,38.86
2023-05-24T03:56:33.910Z,38.76
2023-05-24T03:59:03.383Z,38.94
2023-05-24T04:01:35.018Z,38.96
2023-05-24T04:04:03.227Z,39.25
2023-05-24T04:06:29.974Z,39.70
2023-05-24T04:08:57.918Z,39.99
2023-05-24T04:11:27.761Z,40.44
2023-05-24T04:13:59.769Z,41.19
2023-05-24T04:16:26.831Z,40.65
2023-05-24T04:18:57.629Z,40.55
2023-05-24T04:21:25.401Z,40.48
2023-05-24T04:23:52.998Z,40.28
2023-05-24T04:26:20.658Z,40.44
2023-05-24T04:28:47.885Z,40.47
2023-05-24T04:31:15.757Z,40.15
2023-05-24T04:33:42.581Z,40.31
2023-05-24T04:36:11.375Z,40.22
2023-05-24T04:38:38.624Z,40.04
2023-05-24T04:41:05.317Z,39.48
2023-05-24T04:43:36.512Z,38.59
2023-05-24T04:46:03.293Z,38.25
2023-05-24T04:48:30.074Z,38.28
2023-05-24T04:50:57.806Z,38.02
2023-05-24T04:53:25.120Z,36.86
2023-05-24T04:55:52.009Z,36.10
2023-05-24T04:58:18.575Z,35.77
2023-05-24T05:00:45.134Z,35.74
2023-05-24T05:03:12.007Z,35.49
2023-05-24T05:05:38.820Z,35.23
2023-05-24T05:08:05.763Z,34.89
2023-05-24T05:10:32.736Z,34.22
2023-05-24T05:12:59.648Z,34.35
2023-05-24T05:15:28.996Z,33.74
2023-05-24T05:17:56.929Z,32.99
2023-05-24T05:20:24.128Z,32.87
2023-05-24T05:22:50.635Z,31.56
2023-05-24T05:25:17.499Z,31.14
2023-05-24T05:27:44.052Z,30.86
2023-05-24T05:30:11.618Z,30.04
2023-05-24T05:32:39.575Z,29.29
2023-05-24T05:35:06.681Z,28.68
2023-05-24T05:37:33.704Z,28.20
2023-05-24T05:40:00.475Z,27.72
2023-05-24T05:42:27.068Z,27.17
2023-05-24T05:44:53.671Z,27.41
2023-05-24T05:47:20.158Z,26.78
2023-05-24T05:49:46.824Z,26.51
2023-05-24T05:52:13.560Z,26.21
2023-05-24T05:54:40.404Z,25.38
2023-05-24T05:57:09.916Z,25.33
2023-05-24T05:59:37.604Z,25.19
2023-05-24T06:02:05.965Z,24.62
2023-05-24T06:04:33.407Z,24.39
2023-05-24T06:07:01.689Z,24.19
2023-05-24T06:09:28.528Z,24.18
2023-05-24T06:11:55.239Z,23.48
2023-05-24T06:14:22.038Z,23.47
2023-05-24T06:16:49.005Z,23.35
2023-05-24T06:19:16.074Z,23.17
2023-05-24T06:21:47.361Z,22.60
2023-05-24T06:24:14.985Z,21.99
2023-05-24T06:26:44.973Z,21.64
2023-05-24T06:29:11.666Z,21.64
2023-05-24T06:31:38.686Z,21.12
2023-05-24T06:34:05.546Z,20.76
2023-05-24T06:36:35.162Z,20.47
2023-05-24T06:39:02.107Z,20.40
2023-05-24T06:41:29.250Z,20.68
2023-05-24T06:43:55.864Z,20.56
2023-05-24T06:46:22.606Z,20.30
2023-05-24T06:48:49.264Z,20.25
2023-05-24T06:51:16.621Z,20.14
2023-05-24T06:53:43.197Z,19.94
2023-05-24T06:56:09.903Z,19.67
2023-05-24T06:58:37.229Z,19.76
2023-05-24T07:01:04.398Z,19.66
2023-05-24T07:03:31.540Z,19.82
2023-05-24T07:05:58.220Z,19.83
2023-05-24T07:08:25.070Z,19.39
2023-05-24T07:10:55.358Z,18.81
2023-05-24T07:13:22.814Z,18.66
2023-05-24T07:15:51.022Z,18.27
2023-05-24T07:18:17.875Z,18.76
2023-05-24T07:20:44.717Z,19.03
2023-05-24T07:23:11.662Z,18.63
2023-05-24T07:25:38.206Z,18.44
2023-05-24T07:28:05.280Z,18.89
2023-05-24T07:30:32.922Z,18.81
2023-05-24T07:33:00.312Z,19.03
2023-05-24T07:35:28.758Z,19.52
2023-05-24T07:37:55.862Z,19.47
2023-05-24T07:40:22.663Z,19.43
2023-05-24T07:42:49.321Z,19.25
2023-05-24T07:45:15.885Z,18.87
2023-05-24T07:47:42.680Z,18.87
2023-05-24T07:50:10.001Z,18.92
2023-05-24T07:52:38.128Z,19.16
2023-05-24T07:55:06.024Z,19.16
2023-05-24T07:57:33.027Z,19.75
2023-05-24T08:00:06.445Z,20.83
2023-05-24T08:02:38.557Z,20.74
2023-05-24T08:05:06.130Z,20.87
2023-05-24T08:07:32.852Z,21.13
2023-05-24T08:09:59.586Z,21.18
2023-05-24T08:12:26.338Z,21.31
2023-05-24T08:14:52.963Z,21.33
2023-05-24T08:17:19.528Z,21.32
2023-05-24T08:19:46.059Z,21.16
2023-05-24T08:22:12.498Z,20.99
2023-05-24T08:24:39.197Z,21.03
2023-05-24T08:27:06.777Z,21.15
2023-05-24T08:29:35.168Z,21.18
2023-05-24T08:32:02.144Z,21.40
2023-05-24T08:34:29.540Z,21.58
2023-05-24T08:36:56.050Z,22.19
2023-05-24T08:39:23.230Z,22.93
2023-05-24T08:42:07.283Z,24.05
2023-05-24T08:44:39.981Z,23.90
2023-05-24T08:47:09.071Z,23.07
2023-05-24T08:51:23.720Z,26.18
2023-05-24T08:53:51.193Z,24.15
2023-05-24T08:56:18.997Z,23.73
2023-05-24T08:58:47.499Z,23.23
2023-05-24T09:01:17.000Z,22.77
2023-05-24T09:03:46.361Z,22.67
2023-05-24T09:06:16.787Z,22.51
2023-05-24T09:08:45.372Z,22.52
2023-05-24T09:11:12.690Z,22.47
2023-05-24T09:13:40.510Z,22.54
2023-05-24T09:16:08.098Z,22.37
2023-05-24T09:18:36.401Z,21.83
2023-05-24T09:21:03.811Z,21.69
2023-05-24T09:23:31.213Z,21.35
2023-05-24T09:25:58.773Z,20.95
2023-05-24T09:28:26.157Z,20.35
2023-05-24T09:31:07.337Z,19.86
2023-05-24T09:33:35.722Z,19.07
2023-05-24T09:36:04.708Z,18.68
2023-05-24T09:38:32.092Z,18.27
2023-05-24T09:41:00.610Z,17.39
2023-05-24T09:43:31.916Z,17.17
2023-05-24T09:46:00.747Z,17.19
2023-05-24T09:48:39.928Z,17.60
2023-05-24T09:51:11.837Z,18.23
2023-05-24T09:53:39.253Z,18.80
2023-05-24T09:56:08.687Z,19.17
2023-05-24T09:58:36.407Z,19.21
2023-05-24T10:01:08.115Z,19.21
2023-05-24T10:03:37.993Z,19.15
2023-05-24T10:06:08.034Z,19.23
2023-05-24T10:08:36.820Z,19.71
2023-05-24T10:11:04.983Z,19.61
2023-05-24T10:13:33.733Z,19.69
2023-05-24T10:16:01.293Z,20.08
2023-05-24T10:18:29.142Z,20.08
2023-05-24T10:20:59.666Z,20.41
2023-05-24T10:23:30.236Z,20.13
2023-05-24T10:26:17.881Z,19.81
2023-05-24T10:28:55.057Z,20.14
2023-05-24T10:31:25.568Z,19.84
2023-05-24T10:33:55.595Z,18.74
2023-05-24T10:36:26.658Z,17.84
2023-05-24T10:38:54.399Z,17.63
2023-05-24T10:41:22.470Z,17.38
2023-05-24T10:44:04.810Z,16.71
2023-05-24T10:46:35.150Z,15.87
2023-05-24T10:49:06.569Z,15.08
2023-05-24T10:51:38.810Z,14.93
2023-05-24T10:54:19.821Z,15.29
2023-05-24T10:56:48.873Z,15.24
2023-05-24T10:59:35.736Z,14.80
2023-05-24T11:02:10.532Z,14.87
2023-05-24T11:04:40.216Z,15.69
2023-05-24T11:07:09.769Z,15.93
2023-05-24T11:09:46.057Z,16.59
2023-05-24T11:12:20.871Z,16.85
2023-05-24T11:14:52.844Z,17.11
2023-05-24T11:17:23.119Z,17.58
2023-05-24T11:19:54.614Z,17.96
2023-05-24T11:22:24.298Z,17.78
2023-05-24T11:24:53.740Z,17.05
2023-05-24T11:27:21.244Z,17.05
2023-05-24T11:29:51.337Z,16.61
2023-05-24T11:32:21.038Z,15.74
2023-05-24T11:34:51.262Z,16.14
2023-05-24T11:37:24.033Z,16.21
2023-05-24T11:39:56.874Z,16.15
2023-05-24T11:42:24.961Z,16.38
2023-05-24T11:44:53.347Z,16.26
2023-05-24T11:47:22.932Z,15.63
2023-05-24T11:49:52.208Z,15.43
2023-05-24T11:52:19.579Z,15.78
2023-05-24T11:54:46.930Z,15.85
2023-05-24T11:57:14.432Z,16.21
2023-05-24T11:59:42.200Z,16.23
2023-05-24T12:02:10.885Z,16.07
2023-05-24T12:04:38.539Z,15.81
2023-05-24T12:07:05.907Z,15.57
2023-05-24T12:09:33.254Z,15.76
2023-05-24T12:12:02.021Z,15.75
2023-05-24T12:14:33.334Z,15.40
2023-05-24T12:17:01.951Z,15.58
2023-05-24T12:19:37.129Z,16.16
2023-05-24T12:22:09.152Z,16.64
2023-05-24T12:24:37.366Z,16.95
2023-05-24T12:27:09.704Z,17.04
2023-05-24T12:29:39.870Z,16.75
2023-05-24T12:32:12.442Z,16.89
2023-05-24T12:34:41.662Z,17.05
2023-05-24T12:37:12.354Z,17.36
2023-05-24T12:39:42.560Z,17.82
2023-05-24T12:42:20.977Z,18.07
2023-05-24T12:44:52.493Z,18.43
2023-05-24T12:47:19.832Z,18.61
2023-05-24T12:49:47.559Z,18.58
2023-05-24T12:52:17.774Z,18.55
2023-05-24T12:54:46.848Z,18.06
2023-05-24T12:57:14.215Z,17.82
2023-05-24T12:59:42.256Z,17.94
2023-05-24T13:02:10.819Z,18.25
2023-05-24T13:04:39.491Z,18.93
2023-05-24T13:07:06.788Z,19.58
2023-05-24T13:09:35.674Z,19.63
2023-05-24T13:12:06.156Z,19.80
2023-05-24T13:14:34.382Z,19.72
2023-05-24T13:17:02.118Z,19.58
2023-05-24T13:19:30.443Z,19.68
2023-05-24T13:22:00.597Z,19.60
2023-05-24T13:24:28.343Z,19.95
2023-05-24T13:26:55.705Z,19.80
2023-05-24T13:31:55.038Z,19.32
2023-05-24T13:34:25.766Z,19.30
2023-05-24T13:36:54.578Z,19.45
2023-05-24T13:39:22.284Z,19.18
2023-05-24T13:41:49.818Z,19.14
2023-05-24T13:44:17.350Z,18.55
2023-05-24T13:46:44.810Z,18.70
2023-05-24T13:49:12.426Z,18.98
2023-05-24T13:51:40.488Z,19.38
2023-05-24T13:54:08.485Z,19.38
2023-05-24T13:56:36.662Z,18.91
2023-05-24T13:59:04.836Z,18.64
2023-05-24T14:01:33.360Z,18.56
2023-05-24T14:04:01.946Z,17.98
2023-05-24T14:06:29.402Z,17.55
2023-05-24T14:08:57.570Z,17.48
2023-05-24T14:11:25.650Z,17.71
2023-05-24T14:16:24.536Z,17.66
2023-05-24T14:18:52.203Z,17.28
2023-05-24T14:21:19.754Z,16.98
2023-05-24T14:23:47.504Z,17.26
2023-05-24T14:26:14.883Z,17.61
2023-05-24T14:28:42.249Z,17.64
2023-05-24T14:31:09.717Z,17.56
2023-05-24T14:33:38.495Z,17.61
2023-05-24T14:36:06.712Z,17.15
2023-05-24T14:38:34.030Z,17.33
2023-05-24T14:41:01.793Z,17.89
2023-05-24T14:43:29.278Z,18.24
2023-05-24T14:45:57.042Z,18.98
2023-05-24T14:48:24.424Z,19.90
2023-05-24T14:50:52.416Z,20.35
2023-05-24T14:53:19.780Z,20.65
2023-05-24T14:55:47.438Z,21.36
2023-05-24T14:58:15.124Z,21.85
2023-05-24T15:00:48.922Z,22.04
2023-05-24T15:03:16.673Z,22.17
2023-05-24T15:05:44.347Z,22.19
2023-05-24T15:08:11.811Z,22.30
2023-05-24T15:10:39.656Z,22.10
2023-05-24T15:13:07.049Z,21.34
2023-05-24T15:15:34.394Z,20.66
2023-05-24T15:18:01.929Z,20.79
2023-05-24T15:20:29.858Z,20.68
2023-05-24T15:22:57.256Z,20.59
2023-05-24T15:25:24.644Z,20.56
2023-05-24T15:27:52.067Z,20.82
2023-05-24T15:30:19.746Z,20.68
2023-05-24T15:32:47.659Z,20.99
2023-05-24T15:35:15.186Z,21.81
2023-05-24T15:37:42.689Z,22.29
2023-05-24T15:40:11.061Z,22.57
2023-05-24T15:42:38.467Z,23.04
2023-05-24T15:45:07.299Z,23.08
2023-05-24T15:47:40.198Z,23.23
2023-05-24T15:50:08.868Z,23.22
2023-05-24T15:52:36.486Z,23.17
2023-05-24T15:55:04.267Z,23.32
2023-05-24T15:57:31.780Z,23.58
2023-05-24T15:59:59.143Z,23.68
2023-05-24T16:02:27.158Z,23.59
2023-05-24T16:04:55.594Z,23.62
2023-05-24T16:07:23.830Z,23.65
2023-05-24T16:09:51.360Z,23.72
2023-05-24T16:12:20.131Z,23.06
2023-05-24T16:14:47.495Z,22.93
2023-05-24T16:17:17.840Z,23.32
2023-05-24T16:19:49.693Z,23.08
2023-05-24T16:22:17.339Z,22.86
2023-05-24T16:24:44.798Z,23.23
2023-05-24T16:27:12.689Z,23.16
2023-05-24T16:29:43.709Z,23.04
2023-05-24T16:32:11.513Z,22.86
2023-05-24T16:34:55.060Z,22.24
2023-05-24T16:37:24.256Z,22.56
2023-05-24T16:39:51.787Z,22.83
2023-05-24T16:42:19.290Z,22.53
2023-05-24T16:44:46.945Z,22.48
2023-05-24T16:47:14.419Z,22.42
2023-05-24T16:49:41.866Z,22.46
2023-05-24T16:52:09.229Z,22.74
2023-05-24T16:54:36.754Z,22.68
2023-05-24T16:57:04.333Z,22.69
2023-05-24T16:59:32.299Z,22.68
2023-05-24T17:02:00.850Z,22.82
2023-05-24T17:04:28.313Z,23.07
2023-05-24T17:06:55.947Z,24.00
2023-05-24T17:09:23.511Z,24.25
2023-05-24T17:11:51.131Z,24.15
2023-05-24T17:14:18.627Z,23.81
2023-05-24T17:16:46.015Z,24.21
2023-05-24T17:19:14.322Z,23.98
2023-05-24T17:21:43.385Z,23.69
2023-05-24T17:24:11.054Z,23.59
2023-05-24T17:26:40.498Z,23.89
2023-05-24T17:29:08.487Z,24.49
2023-05-24T17:31:36.304Z,24.45
2023-05-24T17:34:03.807Z,23.92
2023-05-24T17:36:33.675Z,24.43
2023-05-24T17:39:01.635Z,24.66
2023-05-24T17:41:28.991Z,24.48
2023-05-24T17:43:57.295Z,25.21
2023-05-24T17:46:27.879Z,25.79
2023-05-24T17:48:56.512Z,25.84
2023-05-24T17:51:24.756Z,25.39
2023-05-24T17:53:52.276Z,26.02
2023-05-24T17:56:22.384Z,26.16
2023-05-24T17:58:50.745Z,26.53
2023-05-24T18:01:18.284Z,26.47
2023-05-24T18:03:46.711Z,26.25
2023-05-24T18:06:15.830Z,26.28
2023-05-24T18:08:44.531Z,26.36
2023-05-24T18:11:14.598Z,26.53
2023-05-24T18:13:42.622Z,26.36
2023-05-24T18:16:10.785Z,26.77
2023-05-24T18:18:38.319Z,27.24
2023-05-24T18:21:05.927Z,27.31
2023-05-24T18:23:37.387Z,27.07
2023-05-24T18:26:08.959Z,26.78
2023-05-24T18:28:37.722Z,26.70
2023-05-24T18:31:08.489Z,26.32
2023-05-24T18:33:37.003Z,26.28
2023-05-24T18:36:05.933Z,26.84
2023-05-24T18:38:33.721Z,26.52
2023-05-24T18:41:03.526Z,26.74
2023-05-24T18:43:33.067Z,26.70
2023-05-24T18:46:01.202Z,26.50
2023-05-24T18:48:28.522Z,26.91
2023-05-24T18:50:55.850Z,27.72
2023-05-24T18:53:23.141Z,28.22
2023-05-24T18:55:51.089Z,28.16
2023-05-24T18:58:18.391Z,28.42
2023-05-24T19:00:46.005Z,28.45
2023-05-24T19:03:13.702Z,28.19
2023-05-24T19:05:43.820Z,29.22
2023-05-24T19:08:11.796Z,29.05
2023-05-24T19:10:39.163Z,28.63
2023-05-24T19:13:06.692Z,28.72
2023-05-24T19:15:37.477Z,29.24
2023-05-24T19:18:05.236Z,29.67
2023-05-24T19:20:32.702Z,29.40
2023-05-24T19:23:00.298Z,29.86
2023-05-24T19:25:28.249Z,30.19
2023-05-24T19:28:00.535Z,29.74
2023-05-24T19:30:28.552Z,29.90
2023-05-24T19:32:55.986Z,30.93
2023-05-24T19:35:23.564Z,30.75
2023-05-24T19:37:52.336Z,31.33
2023-05-24T19:40:20.334Z,31.55
2023-05-24T19:42:47.680Z,31.94
2023-05-24T19:45:15.157Z,32.53
2023-05-24T19:47:45.968Z,32.35
2023-05-24T19:50:13.303Z,31.83
2023-05-24T19:52:41.008Z,31.71
2023-05-24T19:55:08.746Z,33.37
2023-05-24T19:57:36.232Z,33.66
2023-05-24T20:00:04.590Z,32.94
2023-05-24T20:02:39.048Z,32.93
2023-05-24T20:05:07.073Z,32.69
2023-05-24T20:07:34.430Z,32.57
2023-05-24T20:10:01.915Z,32.43
2023-05-24T20:12:30.965Z,32.43
2023-05-24T20:14:58.730Z,32.65
2023-05-24T20:17:26.361Z,33.28
2023-05-24T20:19:53.703Z,32.43
2023-05-24T20:22:21.361Z,32.15
2023-05-24T20:24:48.675Z,31.99
2023-05-24T20:27:16.554Z,31.71
2023-05-24T20:29:43.928Z,31.92
2023-05-24T20:32:11.965Z,32.15
2023-05-24T20:34:39.322Z,32.51
2023-05-24T20:37:06.797Z,32.83
2023-05-24T20:39:34.167Z,33.01
2023-05-24T20:42:02.325Z,32.99
2023-05-24T20:44:29.635Z,32.96
2023-05-24T20:46:57.178Z,32.54
2023-05-24T20:49:24.528Z,32.87
2023-05-24T20:51:52.010Z,33.05
2023-05-24T20:54:19.324Z,32.90
2023-05-24T20:56:46.674Z,33.47
2023-05-24T20:59:16.815Z,33.77
2023-05-24T21:01:44.290Z,33.89
2023-05-24T21:04:11.885Z,33.81
2023-05-24T21:08:50.840Z,40.60
2023-05-24T21:11:17.656Z,38.09
2023-05-24T21:13:44.302Z,37.29
2023-05-24T21:16:11.018Z,36.61
2023-05-24T21:18:38.085Z,36.47
2023-05-24T21:21:05.297Z,36.68
2023-05-24T21:23:32.136Z,36.89
2023-05-24T21:25:58.574Z,36.63
2023-05-24T21:28:25.083Z,36.68
2023-05-24T21:30:51.552Z,36.62
2023-05-24T21:33:19.183Z,36.65
2023-05-24T21:35:45.818Z,36.76
2023-05-24T21:38:12.480Z,36.74
2023-05-24T21:40:39.076Z,36.90
2023-05-24T21:43:09.060Z,36.74
2023-05-24T21:45:35.922Z,36.69
2023-05-24T21:48:02.667Z,36.57
2023-05-24T21:50:29.324Z,36.56
2023-05-24T21:52:55.955Z,36.85
2023-05-24T21:55:22.980Z,37.04
2023-05-24T21:57:51.588Z,36.89
2023-05-24T22:00:19.442Z,36.90
2023-05-24T22:02:46.619Z,37.40
2023-05-24T22:05:13.515Z,37.56
2023-05-24T22:07:40.918Z,37.67
2023-05-24T22:10:07.829Z,37.73
2023-05-24T22:12:34.691Z,37.83
2023-05-24T22:15:01.368Z,37.67
2023-05-24T22:17:32.285Z,37.47
2023-05-24T22:20:01.666Z,37.55
2023-05-24T22:22:29.219Z,37.90
2023-05-24T22:24:55.820Z,39.03
2023-05-24T22:27:22.803Z,39.27
2023-05-24T22:29:49.239Z,38.72
2023-05-24T22:32:15.798Z,38.84
2023-05-24T22:34:42.647Z,39.41
2023-05-24T22:37:09.338Z,38.93
2023-05-24T22:39:36.429Z,38.87
2023-05-24T22:42:03.079Z,38.61
2023-05-24T22:44:29.906Z,39.17
2023-05-24T22:46:56.434Z,39.32
2023-05-24T22:49:23.512Z,38.79
2023-05-24T22:51:52.489Z,38.44
2023-05-24T22:54:18.913Z,38.54
2023-05-24T22:56:45.648Z,38.87
2023-05-24T22:59:12.250Z,38.95
2023-05-24T23:01:38.992Z,38.55
2023-05-24T23:04:19.842Z,38.61
2023-05-24T23:06:51.569Z,39.05
2023-05-24T23:09:33.263Z,39.62
2023-05-24T23:12:06.634Z,39.06
2023-05-24T23:14:37.720Z,39.94
2023-05-24T23:17:05.343Z,40.15
2023-05-24T23:19:32.020Z,39.94
2023-05-24T23:21:58.556Z,39.79
2023-05-24T23:24:26.172Z,39.88
2023-05-24T23:26:55.082Z,39.88
2023-05-24T23:29:21.946Z,40.56
2023-05-24T23:31:48.426Z,40.28
2023-05-24T23:34:15.181Z,40.17
2023-05-24T23:36:41.745Z,40.35
2023-05-24T23:39:10.307Z,39.85
2023-05-24T23:41:37.656Z,39.17
2023-05-24T23:44:04.227Z,39.41
2023-05-24T23:46:30.972Z,39.53
2023-05-24T23:48:57.888Z,39.24
2023-05-24T23:51:24.704Z,38.85
2023-05-24T23:53:51.168Z,38.92
2023-05-24T23:56:17.608Z,38.76
2023-05-24T23:58:44.236Z,38.99
